createdAt,value
2018-11-12T00:01:17.904Z,19.47
2018-11-12T00:03:45.482Z,19.61
2018-11-12T00:06:13.641Z,19.79
2018-11-12T00:08:41.132Z,19.88
2018-11-12T00:11:09.101Z,19.86
2018-11-12T00:13:38.162Z,19.93
2018-11-12T00:16:05.934Z,19.99
2018-11-12T00:18:33.477Z,19.94
2018-11-12T00:21:01.183Z,19.46
2018-11-12T00:23:29.318Z,19.50
2018-11-12T00:25:57.355Z,19.67
2018-11-12T00:28:24.912Z,19.45
2018-11-12T00:30:52.401Z,19.30
2018-11-12T00:33:19.870Z,18.94
2018-11-12T00:35:48.293Z,19.31
2018-11-12T00:38:17.649Z,19.50
2018-11-12T00:40:45.115Z,19.47
2018-11-12T00:43:12.652Z,19.37
2018-11-12T00:45:40.143Z,19.30
2018-11-12T00:48:07.964Z,19.35
2018-11-12T00:50:35.961Z,19.10
2018-11-12T00:53:03.437Z,19.11
2018-11-12T00:55:30.897Z,19.06
2018-11-12T00:57:58.512Z,19.18
2018-11-12T01:00:26.414Z,19.21
2018-11-12T01:02:54.904Z,19.34
2018-11-12T01:05:22.490Z,19.34
2018-11-12T01:07:49.938Z,19.54
2018-11-12T01:10:18.388Z,19.27
2018-11-12T01:12:48.194Z,19.14
2018-11-12T01:15:17.298Z,19.29
2018-11-12T01:17:44.980Z,19.22
2018-11-12T01:20:13.655Z,19.15
2018-11-12T01:22:41.231Z,19.11
2018-11-12T01:25:11.352Z,19.08
2018-11-12T01:27:40.126Z,19.24
2018-11-12T01:30:09.913Z,19.27
2018-11-12T01:32:37.598Z,19.31
2018-11-12T01:35:06.449Z,19.21
2018-11-12T01:37:34.665Z,19.37
2018-11-12T01:40:02.637Z,19.33
2018-11-12T01:42:30.153Z,19.44
2018-11-12T01:44:57.649Z,19.50
2018-11-12T01:47:25.109Z,19.67
2018-11-12T01:49:53.796Z,19.70
2018-11-12T01:52:22.697Z,19.81
2018-11-12T01:54:50.197Z,19.86
2018-11-12T01:57:17.626Z,19.92
2018-11-12T01:59:45.069Z,19.98
2018-11-12T02:02:13.031Z,19.87
2018-11-12T02:04:40.922Z,20.02
2018-11-12T02:07:08.399Z,20.10
2018-11-12T02:09:35.841Z,20.01
2018-11-12T02:12:04.673Z,20.13
2018-11-12T02:14:32.724Z,20.15
2018-11-12T02:17:01.565Z,20.06
2018-11-12T02:19:29.164Z,19.93
2018-11-12T02:21:56.595Z,19.62
2018-11-12T02:24:24.112Z,19.78
2018-11-12T02:26:52.225Z,18.54
2018-11-12T02:29:20.128Z,19.08
2018-11-12T02:31:47.528Z,18.83
2018-11-12T02:34:15.118Z,19.07
2018-11-12T02:36:42.557Z,19.18
2018-11-12T02:39:10.962Z,18.86
2018-11-12T02:41:40.270Z,19.01
2018-11-12T02:44:08.169Z,19.16
2018-11-12T02:46:36.388Z,19.36
2018-11-12T02:49:03.983Z,19.42
2018-11-12T02:51:31.897Z,19.36
2018-11-12T02:53:59.826Z,19.50
2018-11-12T02:56:27.958Z,19.08
2018-11-12T02:58:55.495Z,19.18
2018-11-12T03:01:23.068Z,19.38
2018-11-12T03:03:52.542Z,19.29
2018-11-12T03:06:23.565Z,19.51
2018-11-12T03:08:51.053Z,19.59
2018-11-12T03:11:18.610Z,19.73
2018-11-12T03:13:46.040Z,19.80
2018-11-12T03:16:14.237Z,19.70
2018-11-12T03:18:43.585Z,19.72
2018-11-12T03:21:11.217Z,19.47
2018-11-12T03:23:38.644Z,19.58
2018-11-12T03:26:06.230Z,19.45
2018-11-12T03:28:35.661Z,18.99
2018-11-12T03:31:03.735Z,19.44
2018-11-12T03:33:31.263Z,19.48
2018-11-12T03:35:58.771Z,19.45
2018-11-12T03:38:26.212Z,19.33
2018-11-12T03:40:54.237Z,19.50
2018-11-12T03:43:22.198Z,19.21
2018-11-12T03:45:49.651Z,19.29
2018-11-12T03:48:17.187Z,19.14
2018-11-12T03:50:44.611Z,19.25
2018-11-12T03:53:12.500Z,19.39
2018-11-12T03:55:41.450Z,19.55
2018-11-12T03:58:08.893Z,19.63
2018-11-12T04:00:36.321Z,19.73
2018-11-12T04:03:03.870Z,19.78
2018-11-12T04:05:31.881Z,19.66
2018-11-12T04:07:59.755Z,19.62
2018-11-12T04:10:27.274Z,19.34
2018-11-12T04:12:54.673Z,19.45
2018-11-12T04:15:24.193Z,19.56
2018-11-12T04:17:53.547Z,19.36
2018-11-12T04:20:23.779Z,19.13
2018-11-12T04:23:09.737Z,19.26
2018-11-12T04:25:39.136Z,19.46
2018-11-12T04:28:07.090Z,19.54
2018-11-12T04:30:35.585Z,19.47
2018-11-12T04:33:03.173Z,19.58
2018-11-12T04:35:30.705Z,19.53
2018-11-12T04:37:58.455Z,19.52
2018-11-12T04:40:26.464Z,19.35
2018-11-12T04:42:55.726Z,19.36
2018-11-12T04:45:24.562Z,19.49
2018-11-12T04:47:52.619Z,19.46
2018-11-12T04:50:21.484Z,19.41
2018-11-12T04:52:51.401Z,19.59
2018-11-12T04:55:20.554Z,19.64
2018-11-12T04:57:48.082Z,19.51
2018-11-12T05:00:17.903Z,19.52
2018-11-12T05:02:45.392Z,19.60
2018-11-12T05:05:15.444Z,19.57
2018-11-12T05:07:44.393Z,19.58
2018-11-12T05:10:12.946Z,19.65
2018-11-12T05:12:40.988Z,19.68
2018-11-12T05:15:10.905Z,19.71
2018-11-12T05:17:39.358Z,19.44
2018-11-12T05:20:09.911Z,19.53
2018-11-12T05:22:37.653Z,19.53
2018-11-12T05:25:05.146Z,19.57
2018-11-12T05:27:32.759Z,19.53
2018-11-12T05:30:00.745Z,19.66
2018-11-12T05:32:30.357Z,19.73
2018-11-12T05:34:57.818Z,19.46
2018-11-12T05:37:25.367Z,19.02
2018-11-12T05:39:52.825Z,19.38
2018-11-12T05:42:20.857Z,19.50
2018-11-12T05:44:48.860Z,19.27
2018-11-12T05:47:16.234Z,18.99
2018-11-12T05:49:43.649Z,19.11
2018-11-12T05:52:11.736Z,18.89
2018-11-12T05:54:39.625Z,19.07
2018-11-12T05:57:09.129Z,19.05
2018-11-12T05:59:36.585Z,18.93
2018-11-12T06:02:04.136Z,19.20
2018-11-12T06:04:31.581Z,19.24
2018-11-12T06:06:59.536Z,19.37
2018-11-12T06:09:27.573Z,19.45
2018-11-12T06:11:55.144Z,19.48
2018-11-12T06:14:22.621Z,19.64
2018-11-12T06:16:50.126Z,19.60
2018-11-12T06:19:18.136Z,19.47
2018-11-12T06:21:47.061Z,19.41
2018-11-12T06:24:15.545Z,19.32
2018-11-12T06:26:43.032Z,19.44
2018-11-12T06:29:10.576Z,19.48
2018-11-12T06:31:39.019Z,19.12
2018-11-12T06:34:07.396Z,19.35
2018-11-12T06:36:34.975Z,19.33
2018-11-12T06:39:02.602Z,19.46
2018-11-12T06:41:30.101Z,19.59
2018-11-12T06:43:59.265Z,19.70
2018-11-12T06:46:28.179Z,19.73
2018-11-12T06:48:55.755Z,19.79
2018-11-12T06:51:23.315Z,19.64
2018-11-12T06:53:50.790Z,19.65
2018-11-12T06:56:18.802Z,19.26
2018-11-12T06:58:46.792Z,19.13
2018-11-12T07:01:15.285Z,19.23
2018-11-12T07:03:42.733Z,19.38
2018-11-12T07:06:10.341Z,19.21
2018-11-12T07:08:38.149Z,19.05
2018-11-12T07:11:07.688Z,18.96
2018-11-12T07:13:35.238Z,19.16
2018-11-12T07:16:02.738Z,18.99
2018-11-12T07:18:30.333Z,19.18
2018-11-12T07:20:58.361Z,19.40
2018-11-12T07:23:26.980Z,19.58
2018-11-12T07:25:54.492Z,19.69
2018-11-12T07:28:22.106Z,19.78
2018-11-12T07:30:49.785Z,19.84
2018-11-12T07:33:17.788Z,19.88
2018-11-12T07:35:47.340Z,19.94
2018-11-12T07:38:14.868Z,20.01
2018-11-12T07:40:42.374Z,20.09
2018-11-12T07:43:10.062Z,20.11
2018-11-12T07:45:37.999Z,20.12
2018-11-12T07:48:06.030Z,20.07
2018-11-12T07:50:34.279Z,20.15
2018-11-12T07:53:01.753Z,19.91
2018-11-12T07:55:29.326Z,19.45
2018-11-12T07:57:58.236Z,19.64
2018-11-12T08:00:32.502Z,19.48
2018-11-12T08:03:06.377Z,19.57
2018-11-12T08:05:34.274Z,19.75
2018-11-12T08:08:02.275Z,19.92
2018-11-12T08:10:30.316Z,19.80
2018-11-12T08:12:57.774Z,19.99
2018-11-12T08:15:25.341Z,19.98
2018-11-12T08:17:53.162Z,20.06
2018-11-12T08:20:23.211Z,20.01
2018-11-12T08:22:52.097Z,20.05
2018-11-12T08:25:21.202Z,20.00
2018-11-12T08:27:49.185Z,19.69
2018-11-12T08:30:19.050Z,19.47
2018-11-12T08:32:48.237Z,19.30
2018-11-12T08:35:16.593Z,19.29
2018-11-12T08:37:45.153Z,18.82
2018-11-12T08:40:14.232Z,18.69
2018-11-12T08:42:41.970Z,19.21
2018-11-12T08:45:10.497Z,19.35
2018-11-12T08:47:40.484Z,18.47
2018-11-12T08:50:10.109Z,18.81
2018-11-12T08:52:38.101Z,19.07
2018-11-12T08:55:06.482Z,19.53
2018-11-12T08:57:34.347Z,19.59
2018-11-12T09:00:02.322Z,20.11
2018-11-12T09:02:30.830Z,20.46
2018-11-12T09:04:58.509Z,20.62
2018-11-12T09:07:25.941Z,20.76
2018-11-12T09:09:54.585Z,20.80
2018-11-12T09:12:23.794Z,20.82
2018-11-12T09:14:52.130Z,20.80
2018-11-12T09:17:19.737Z,20.91
2018-11-12T09:19:47.262Z,20.93
2018-11-12T09:22:15.093Z,20.99
2018-11-12T09:24:42.994Z,21.00
2018-11-12T09:27:10.560Z,20.67
2018-11-12T09:29:38.203Z,20.66
2018-11-12T09:32:06.415Z,20.97
2018-11-12T09:34:34.317Z,20.95
2018-11-12T09:37:03.531Z,21.10
2018-11-12T09:39:31.409Z,21.21
2018-11-12T09:41:58.910Z,20.93
2018-11-12T09:44:27.151Z,21.25
2018-11-12T09:46:56.325Z,21.51
2018-11-12T09:49:24.392Z,21.58
2018-11-12T09:51:51.885Z,21.42
2018-11-12T09:54:20.779Z,21.67
2018-11-12T09:56:48.154Z,21.60
2018-11-12T09:59:16.174Z,21.39
2018-11-12T10:01:45.258Z,21.73
2018-11-12T10:04:13.667Z,22.17
2018-11-12T10:06:41.868Z,22.40
2018-11-12T10:09:12.038Z,22.70
2018-11-12T10:11:40.307Z,22.89
2018-11-12T10:14:08.731Z,21.66
2018-11-12T10:16:38.290Z,22.42
2018-11-12T10:19:02.366Z,22.66
2018-11-12T10:21:30.953Z,22.97
2018-11-12T10:23:59.160Z,23.05
2018-11-12T10:26:28.847Z,23.00
2018-11-12T10:28:57.078Z,23.34
2018-11-12T10:31:25.048Z,23.38
2018-11-12T10:33:53.254Z,23.65
2018-11-12T10:36:20.757Z,23.52
2018-11-12T10:38:49.058Z,23.77
2018-11-12T10:41:17.631Z,23.67
2018-11-12T10:43:45.331Z,24.01
2018-11-12T10:46:12.981Z,24.40
2018-11-12T10:48:40.800Z,24.20
2018-11-12T10:51:10.364Z,23.99
2018-11-12T10:53:38.385Z,22.75
2018-11-12T10:56:05.918Z,22.61
2018-11-12T10:58:35.445Z,22.24
2018-11-12T11:03:16.721Z,22.25
2018-11-12T11:05:47.653Z,22.92
2018-11-12T11:08:15.674Z,22.16
2018-11-12T11:10:44.418Z,22.50
2018-11-12T11:13:12.087Z,22.61
2018-11-12T11:15:40.058Z,22.58
2018-11-12T11:18:09.642Z,22.51
2018-11-12T11:20:37.146Z,22.85
2018-11-12T11:23:04.930Z,23.48
2018-11-12T11:25:33.696Z,22.58
2018-11-12T11:28:01.403Z,23.28
2018-11-12T11:30:30.179Z,23.20
2018-11-12T11:32:57.793Z,22.71
2018-11-12T11:35:25.357Z,22.86
2018-11-12T11:37:52.899Z,23.40
2018-11-12T11:40:21.785Z,23.43
2018-11-12T11:42:51.650Z,23.79
2018-11-12T11:45:19.800Z,23.60
2018-11-12T11:47:48.429Z,24.00
2018-11-12T11:50:18.235Z,23.40
2018-11-12T11:52:45.634Z,23.61
2018-11-12T11:55:15.482Z,23.77
2018-11-12T11:57:43.419Z,23.64
2018-11-12T12:00:17.201Z,24.33
2018-11-12T12:02:45.582Z,24.19
2018-11-12T12:05:13.954Z,25.03
2018-11-12T12:07:43.301Z,24.63
2018-11-12T12:10:12.080Z,25.19
2018-11-12T12:12:40.978Z,25.00
2018-11-12T12:15:11.346Z,25.15
2018-11-12T12:17:39.931Z,25.64
2018-11-12T12:20:10.673Z,25.69
2018-11-12T12:22:38.351Z,25.76
2018-11-12T12:25:07.312Z,25.87
2018-11-12T12:27:35.034Z,25.03
2018-11-12T12:30:02.702Z,24.29
2018-11-12T12:32:31.598Z,24.93
2018-11-12T12:34:59.474Z,24.61
2018-11-12T12:37:28.324Z,23.99
2018-11-12T12:39:56.059Z,23.29
2018-11-12T12:42:23.681Z,23.30
2018-11-12T12:44:52.462Z,24.09
2018-11-12T12:47:19.897Z,23.54
2018-11-12T12:49:47.337Z,23.73
2018-11-12T12:52:15.086Z,23.39
2018-11-12T12:54:43.269Z,23.21
2018-11-12T12:57:12.226Z,23.30
2018-11-12T12:59:40.856Z,23.97
2018-11-12T13:02:08.396Z,23.91
2018-11-12T13:04:35.976Z,24.45
2018-11-12T13:07:03.638Z,24.77
2018-11-12T13:09:32.273Z,24.99
2018-11-12T13:12:01.262Z,24.88
2018-11-12T13:14:31.034Z,24.38
2018-11-12T13:16:58.661Z,24.50
2018-11-12T13:19:26.982Z,23.76
2018-11-12T13:21:58.169Z,21.85
2018-11-12T13:24:25.692Z,22.69
2018-11-12T13:26:53.329Z,22.97
2018-11-12T13:29:21.063Z,22.49
2018-11-12T13:31:48.689Z,21.64
2018-11-12T13:34:17.234Z,22.31
2018-11-12T13:36:44.762Z,22.53
2018-11-12T13:39:13.075Z,22.17
2018-11-12T13:41:40.703Z,22.22
2018-11-12T13:44:08.705Z,22.54
2018-11-12T13:46:44.608Z,22.27
2018-11-12T13:49:12.187Z,21.96
2018-11-12T13:51:40.037Z,22.21
2018-11-12T13:54:08.348Z,22.42
2018-11-12T13:56:36.111Z,22.08
2018-11-12T13:59:04.905Z,21.89
2018-11-12T14:01:32.473Z,22.09
2018-11-12T14:04:01.866Z,22.34
2018-11-12T14:06:29.489Z,22.58
2018-11-12T14:08:57.087Z,22.62
2018-11-12T14:11:26.663Z,22.71
2018-11-12T14:13:54.916Z,22.69
2018-11-12T14:16:22.877Z,22.76
2018-11-12T14:18:50.436Z,22.80
2018-11-12T14:21:18.261Z,22.88
2018-11-12T14:23:46.797Z,22.82
2018-11-12T14:26:14.523Z,22.77
2018-11-12T14:28:42.260Z,22.59
2018-11-12T14:31:09.666Z,22.64
2018-11-12T14:33:37.203Z,22.62
2018-11-12T14:36:07.019Z,22.67
2018-11-12T14:38:34.520Z,22.68
2018-11-12T14:41:02.269Z,22.68
2018-11-12T14:43:29.907Z,22.54
2018-11-12T14:45:58.250Z,22.51
2018-11-12T14:48:26.993Z,22.49
2018-11-12T14:50:54.612Z,22.51
2018-11-12T14:53:22.201Z,22.46
2018-11-12T14:55:49.731Z,22.41
2018-11-12T14:58:17.343Z,22.43
2018-11-12T15:00:46.634Z,22.41
2018-11-12T15:03:14.470Z,22.31
2018-11-12T15:05:42.109Z,22.23
2018-11-12T15:08:09.612Z,22.05
2018-11-12T15:10:38.271Z,22.09
2018-11-12T15:13:06.738Z,22.08
2018-11-12T15:15:34.383Z,22.07
2018-11-12T15:18:02.727Z,22.05
2018-11-12T15:20:30.316Z,21.94
2018-11-12T15:22:57.927Z,21.90
2018-11-12T15:25:27.888Z,22.00
2018-11-12T15:27:55.485Z,21.67
2018-11-12T15:30:24.194Z,21.54
2018-11-12T15:32:53.110Z,21.57
2018-11-12T15:35:20.622Z,21.60
2018-11-12T15:37:49.618Z,21.39
2018-11-12T15:40:17.362Z,21.39
2018-11-12T15:42:44.998Z,21.04
2018-11-12T15:45:15.075Z,21.20
2018-11-12T15:47:43.782Z,21.20
2018-11-12T15:50:15.762Z,21.24
2018-11-12T15:52:44.038Z,21.28
2018-11-12T15:55:11.531Z,21.27
2018-11-12T15:57:39.403Z,21.14
2018-11-12T16:00:09.564Z,21.15
2018-11-12T16:02:38.075Z,21.27
2018-11-12T16:05:06.230Z,21.15
2018-11-12T16:07:34.022Z,21.09
2018-11-12T16:11:31.057Z,21.22
2018-11-12T16:14:00.790Z,20.97
2018-11-12T16:16:28.388Z,21.07
2018-11-12T16:18:55.910Z,21.14
2018-11-12T16:21:23.466Z,21.16
2018-11-12T16:23:51.743Z,21.25
2018-11-12T16:26:20.415Z,21.27
2018-11-12T16:28:48.082Z,21.33
2018-11-12T16:31:15.666Z,21.35
2018-11-12T16:33:43.283Z,21.37
2018-11-12T16:36:11.347Z,21.37
2018-11-12T16:38:40.510Z,21.36
2018-11-12T16:41:08.166Z,21.40
2018-11-12T16:43:35.683Z,21.41
2018-11-12T16:46:03.288Z,21.25
2018-11-12T16:48:30.862Z,20.88
2018-11-12T16:51:01.117Z,20.74
2018-11-12T16:53:28.870Z,20.92
2018-11-12T16:55:56.857Z,20.93
2018-11-12T16:58:24.574Z,21.07
2018-11-12T17:00:52.566Z,20.94
2018-11-12T17:03:22.153Z,20.98
2018-11-12T17:05:49.910Z,20.99
2018-11-12T17:08:18.883Z,21.10
2018-11-12T17:10:46.594Z,21.22
2018-11-12T17:13:15.285Z,21.30
2018-11-12T17:15:44.562Z,21.09
2018-11-12T17:18:12.183Z,21.18
2018-11-12T17:20:39.930Z,21.24
2018-11-12T17:23:07.542Z,21.15
2018-11-12T17:25:36.142Z,21.19
2018-11-12T17:28:05.153Z,21.08
2018-11-12T17:30:32.796Z,21.17
2018-11-12T17:33:08.842Z,21.22
2018-11-12T17:38:13.981Z,21.25
2018-11-12T17:40:41.541Z,21.25
2018-11-12T17:43:09.136Z,21.22
2018-11-12T17:45:47.751Z,21.24
2018-11-12T17:48:16.962Z,21.24
2018-11-12T17:50:44.485Z,20.87
2018-11-12T17:53:12.343Z,21.01
2018-11-12T17:55:40.061Z,21.00
2018-11-12T17:58:07.665Z,21.14
2018-11-12T18:00:37.390Z,20.79
2018-11-12T18:03:07.263Z,20.90
2018-11-12T18:05:34.875Z,20.95
2018-11-12T18:08:02.633Z,21.05
2018-11-12T18:10:30.295Z,20.92
2018-11-12T18:12:59.464Z,20.82
2018-11-12T18:15:27.700Z,20.94
2018-11-12T18:17:55.266Z,21.01
2018-11-12T18:20:25.255Z,20.83
2018-11-12T18:22:53.499Z,20.96
2018-11-12T18:25:21.961Z,21.10
2018-11-12T18:27:50.153Z,21.12
2018-11-12T18:30:21.320Z,21.07
2018-11-12T18:32:49.925Z,21.11
2018-11-12T18:35:17.520Z,21.17
2018-11-12T18:37:47.612Z,21.14
2018-11-12T18:40:16.506Z,21.16
2018-11-12T18:42:44.286Z,20.79
2018-11-12T18:45:14.082Z,20.95
2018-11-12T18:47:41.983Z,20.90
2018-11-12T18:50:15.115Z,20.91
2018-11-12T18:52:42.968Z,20.90
2018-11-12T18:55:11.732Z,21.03
2018-11-12T18:57:39.899Z,21.09
2018-11-12T19:00:12.838Z,20.88
2018-11-12T19:02:40.834Z,20.93
2018-11-12T19:05:14.458Z,20.99
2018-11-12T19:07:42.606Z,20.98
2018-11-12T19:10:13.626Z,21.07
2018-11-12T19:12:56.236Z,21.00
2018-11-12T19:15:29.049Z,21.00
2018-11-12T19:18:00.605Z,20.58
2018-11-12T19:20:28.139Z,20.77
2018-11-12T19:22:56.544Z,20.62
2018-11-12T19:25:24.281Z,20.75
2018-11-12T19:27:51.842Z,20.88
2018-11-12T19:30:20.974Z,20.93
2018-11-12T19:32:48.525Z,20.96
2018-11-12T19:35:20.369Z,21.00
2018-11-12T19:37:47.818Z,20.98
2018-11-12T19:40:35.695Z,20.83
2018-11-12T19:43:03.124Z,20.91
2018-11-12T19:45:31.554Z,20.92
2018-11-12T19:47:59.124Z,20.94
2018-11-12T19:50:27.846Z,21.02
2018-11-12T19:54:24.943Z,21.04
2018-11-12T19:56:54.933Z,20.82
2018-11-12T19:59:22.418Z,20.62
2018-11-12T20:01:50.040Z,20.45
2018-11-12T20:04:17.502Z,20.66
2018-11-12T20:06:45.024Z,20.84
2018-11-12T20:09:14.832Z,20.96
2018-11-12T20:11:42.341Z,20.97
2018-11-12T20:14:09.953Z,21.07
2018-11-12T20:16:37.538Z,20.97
2018-11-12T20:19:05.226Z,21.07
2018-11-12T20:21:34.112Z,21.15
2018-11-12T20:24:01.660Z,21.20
2018-11-12T20:26:29.121Z,21.16
2018-11-12T20:28:56.598Z,21.14
2018-11-12T20:31:25.040Z,21.02
2018-11-12T20:33:53.560Z,21.04
2018-11-12T20:36:21.082Z,21.09
2018-11-12T20:38:48.718Z,21.08
2018-11-12T20:41:16.220Z,21.06
2018-11-12T20:43:43.680Z,21.07
2018-11-12T20:46:13.311Z,21.10
2018-11-12T20:48:40.849Z,21.06
2018-11-12T20:51:08.405Z,21.02
2018-11-12T20:53:36.101Z,20.94
2018-11-12T20:56:03.862Z,21.00
2018-11-12T20:58:32.540Z,20.96
2018-11-12T21:01:00.026Z,20.95
2018-11-12T21:03:27.573Z,20.96
2018-11-12T21:05:55.104Z,21.01
2018-11-12T21:08:22.696Z,20.94
2018-11-12T21:10:51.972Z,20.94
2018-11-12T21:13:19.422Z,20.97
2018-11-12T21:15:47.030Z,20.88
2018-11-12T21:18:14.562Z,20.90
2018-11-12T21:20:42.085Z,20.83
2018-11-12T21:23:10.593Z,20.81
2018-11-12T21:25:38.117Z,20.89
2018-11-12T21:28:05.708Z,20.85
2018-11-12T21:30:33.371Z,20.54
2018-11-12T21:33:00.896Z,20.30
2018-11-12T21:35:30.802Z,20.51
2018-11-12T21:37:59.148Z,20.64
2018-11-12T21:40:27.714Z,20.67
2018-11-12T21:42:55.270Z,20.50
2018-11-12T21:45:24.305Z,20.62
2018-11-12T21:47:52.809Z,20.60
2018-11-12T21:50:21.134Z,20.60
2018-11-12T21:52:48.668Z,20.65
2018-11-12T21:55:16.195Z,20.22
2018-11-12T21:57:44.227Z,20.19
2018-11-12T22:00:17.269Z,20.28
2018-11-12T22:02:46.022Z,20.50
2018-11-12T22:05:14.085Z,20.62
2018-11-12T22:07:41.600Z,20.71
2018-11-12T22:10:10.935Z,20.77
2018-11-12T22:12:39.953Z,20.66
2018-11-12T22:15:07.845Z,20.30
2018-11-12T22:17:35.395Z,20.28
2018-11-12T22:20:03.046Z,20.48
2018-11-12T22:22:30.506Z,20.63
2018-11-12T22:24:59.372Z,20.61
2018-11-12T22:27:26.924Z,20.66
2018-11-12T22:29:54.393Z,20.76
2018-11-12T22:32:21.973Z,20.80
2018-11-12T22:34:49.621Z,20.85
2018-11-12T22:37:18.085Z,20.85
2018-11-12T22:39:45.600Z,20.11
2018-11-12T22:42:13.025Z,20.14
2018-11-12T22:44:40.578Z,20.19
2018-11-12T22:47:08.094Z,20.41
2018-11-12T22:49:39.225Z,20.54
2018-11-12T22:52:06.784Z,20.62
2018-11-12T22:54:34.287Z,20.66
2018-11-12T22:57:01.827Z,20.72
2018-11-12T22:59:29.430Z,20.37
2018-11-12T23:01:58.053Z,20.54
2018-11-12T23:04:25.630Z,20.12
2018-11-12T23:06:53.194Z,20.27
2018-11-12T23:09:20.739Z,20.43
2018-11-12T23:11:48.318Z,20.50
2018-11-12T23:14:17.303Z,20.39
2018-11-12T23:16:44.810Z,20.34
2018-11-12T23:19:12.318Z,20.26
2018-11-12T23:21:41.106Z,20.37
2018-11-12T23:24:08.605Z,20.41
2018-11-12T23:26:37.613Z,20.37
2018-11-12T23:29:05.431Z,19.81
2018-11-12T23:31:32.946Z,19.38
2018-11-12T23:34:00.552Z,19.71
2018-11-12T23:36:28.137Z,19.94
2018-11-12T23:38:57.301Z,20.13
2018-11-12T23:41:25.137Z,20.25
2018-11-12T23:43:52.697Z,20.16
2018-11-12T23:46:20.259Z,20.25
2018-11-12T23:48:48.022Z,20.25
2018-11-12T23:51:16.672Z,20.35
2018-11-12T23:53:44.172Z,20.41
2018-11-12T23:56:11.701Z,20.48
2018-11-12T23:58:40.465Z,20.48
